Time;durP1;ratioP1;P1;durP2;ratioP2;P2;SDS_P1;SDS_P2;PMS_P1;PMS_P2;Temp;Humidity;BMP_temperature;BMP_pressure;BME280_temperature;BME280_humidity;BME280_pressure;Samples;Min_cycle;Max_cycle;Signal;HPM_P1;HPM_P2
2023/09/28 00:00:35;;;;;;;4.22;2.72;;;;;;;18.48;95.54;101119.66;5100429;28;20042;-83
2023/09/28 00:03:00;;;;;;;3.47;2.92;;;;;;;18.52;95.15;101128.22;5100105;28;20032;-83
2023/09/28 00:05:26;;;;;;;7.73;3.23;;;;;;;18.53;95.35;101129.88;5115827;28;20027;-83
2023/09/28 00:07:51;;;;;;;8.63;3.03;;;;;;;18.54;95.15;101134.25;5115903;28;20080;-83
2023/09/28 00:10:17;;;;;;;4.28;2.70;;;;;;;18.52;95.48;101130.97;5115820;28;20118;-83
2023/09/28 00:12:45;;;;;;;4.80;2.70;;;;;;;18.52;95.38;101130.97;5116653;28;20406;-83
2023/09/28 00:15:12;;;;;;;3.63;2.70;;;;;;;18.53;95.08;101127.13;5116925;28;20024;-83
2023/09/28 00:17:38;;;;;;;6.22;2.90;;;;;;;18.52;95.02;101136.47;5115376;28;20028;-83
2023/09/28 00:20:16;;;;;;;4.03;2.55;;;;;;;18.50;95.31;101127.63;5115573;28;20036;-83
2023/09/28 00:22:42;;;;;;;3.70;2.70;;;;;;;18.50;95.61;101139.47;5100782;28;20118;-83
2023/09/28 00:25:11;;;;;;;4.53;2.72;;;;;;;18.50;95.48;101142.22;5098471;28;20066;-83
2023/09/28 00:27:43;;;;;;;5.87;2.90;;;;;;;18.48;95.64;101147.13;5098816;28;20031;-83
2023/09/28 00:30:10;;;;;;;9.40;2.90;;;;;;;18.45;95.99;101150.41;5115627;28;20032;-83
2023/09/28 00:32:36;;;;;;;5.78;3.10;;;;;;;18.44;96.32;101154.25;5116696;28;20042;-83
2023/09/28 00:35:04;;;;;;;3.40;2.60;;;;;;;18.41;96.41;101161.09;5115439;28;20040;-83
2023/09/28 00:37:32;;;;;;;4.00;2.77;;;;;;;18.41;97.01;101157.53;5115333;28;20115;-83
2023/09/28 00:39:58;;;;;;;3.67;2.88;;;;;;;18.35;97.40;101153.91;5115588;28;20024;-83
2023/09/28 00:42:25;;;;;;;3.45;2.72;;;;;;;18.31;97.78;101157.44;5115380;28;20095;-83
2023/09/28 00:44:51;;;;;;;6.20;3.13;;;;;;;18.27;98.21;101165.34;5081358;28;20042;-83
2023/09/28 00:47:16;;;;;;;4.68;2.95;;;;;;;18.24;98.21;101174.91;5097969;28;20510;-83
2023/09/28 00:49:44;;;;;;;6.60;2.93;;;;;;;18.23;98.50;101169.69;5082032;28;20038;-83
2023/09/28 00:52:11;;;;;;;4.85;3.10;;;;;;;18.20;98.51;101159.22;5081330;28;20023;-83
2023/09/28 00:54:38;;;;;;;6.70;3.35;;;;;;;18.19;98.76;101163.91;5115938;28;20050;-82
2023/09/28 00:57:05;;;;;;;5.60;2.97;;;;;;;18.14;99.17;101160.25;5081409;28;20054;-83
2023/09/28 00:59:31;;;;;;;4.10;2.75;;;;;;;18.14;99.31;101161.06;5098145;28;20383;-83
2023/09/28 01:01:57;;;;;;;5.47;2.90;;;;;;;18.13;99.56;101155.84;5115719;28;20030;-83
2023/09/28 01:04:22;;;;;;;6.03;3.20;;;;;;;18.12;99.71;101154.22;5114524;28;20040;-83
2023/09/28 01:06:48;;;;;;;5.15;2.90;;;;;;;18.10;99.91;101148.13;5114944;28;20061;-83
2023/09/28 01:09:15;;;;;;;5.27;3.00;;;;;;;18.11;100.00;101158.03;5114586;28;20490;-83
2023/09/28 01:11:41;;;;;;;3.45;2.60;;;;;;;18.06;100.00;101161.56;5097957;28;20024;-82
2023/09/28 01:14:07;;;;;;;6.10;3.03;;;;;;;18.01;100.00;101158.75;5114534;28;20020;-82
2023/09/28 01:16:33;;;;;;;4.97;3.10;;;;;;;17.99;100.00;101164.50;5114185;28;20039;-82
2023/09/28 01:18:59;;;;;;;7.15;3.30;;;;;;;17.96;100.00;101164.19;5097467;28;20080;-83
2023/09/28 01:21:24;;;;;;;6.83;3.10;;;;;;;17.90;100.00;101162.47;5114078;28;20035;-82
2023/09/28 01:23:51;;;;;;;3.70;2.75;;;;;;;17.86;100.00;101162.97;5114020;28;20395;-83
2023/09/28 01:26:16;;;;;;;3.40;2.80;;;;;;;17.82;100.00;101174.69;5097636;28;20062;-83
2023/09/28 01:28:42;;;;;;;6.90;3.20;;;;;;;17.79;100.00;101172.44;5114575;28;20110;-83
2023/09/28 01:31:07;;;;;;;5.33;3.17;;;;;;;17.73;100.00;101166.09;5114186;28;20451;-83
2023/09/28 01:33:33;;;;;;;3.75;2.92;;;;;;;17.70;100.00;101166.59;5096894;28;20032;-83
2023/09/28 01:35:58;;;;;;;8.63;3.23;;;;;;;17.66;100.00;101166.28;5097560;28;20032;-82
2023/09/28 01:38:36;;;;;;;6.10;2.77;;;;;;;17.63;100.00;101155.00;5114010;28;20027;-83
2023/09/28 01:41:05;;;;;;;5.80;3.42;;;;;;;17.60;100.00;101164.56;5114052;28;20031;-83
2023/09/28 01:43:30;;;;;;;5.68;2.90;;;;;;;17.60;100.00;101174.69;5115451;28;20028;-83
2023/09/28 01:45:56;;;;;;;8.23;3.00;;;;;;;17.58;100.00;101174.94;5097701;28;20083;-83
2023/09/28 01:48:21;;;;;;;4.43;3.33;;;;;;;17.57;100.00;101176.03;5096972;28;20491;-83
2023/09/28 01:50:47;;;;;;;5.65;3.50;;;;;;;17.53;100.00;101180.38;5113318;28;20379;-83
2023/09/28 01:53:12;;;;;;;6.40;3.30;;;;;;;17.50;100.00;101175.41;5079885;28;20032;-82
2023/09/28 01:55:37;;;;;;;5.23;3.30;;;;;;;17.45;100.00;101178.91;5096377;28;20027;-82
2023/09/28 01:58:07;;;;;;;6.30;3.40;;;;;;;17.43;100.00;101182.97;5113489;28;20115;-83
2023/09/28 02:00:33;;;;;;;4.30;3.00;;;;;;;17.40;100.00;101183.50;5097237;28;20043;-83
2023/09/28 02:03:02;;;;;;;5.47;3.28;;;;;;;17.36;100.00;101186.75;5113541;28;20035;-82
2023/09/28 02:05:32;;;;;;;5.95;3.30;;;;;;;17.32;100.00;101190.25;5113536;28;20062;-83
2023/09/28 02:08:02;;;;;;;8.00;3.40;;;;;;;17.29;100.00;101196.22;5113763;28;20035;-83
2023/09/28 02:10:28;;;;;;;6.38;2.95;;;;;;;17.25;100.00;101200.56;5113286;28;20057;-83
2023/09/28 02:12:55;;;;;;;5.35;3.22;;;;;;;17.22;100.00;101201.06;5096075;28;20036;-83
2023/09/28 02:15:22;;;;;;;5.60;3.30;;;;;;;17.16;100.00;101205.63;5113032;28;20020;-82
2023/09/28 02:17:48;;;;;;;6.97;3.28;;;;;;;17.08;100.00;101206.88;5114781;28;20031;-83
2023/09/28 02:20:15;;;;;;;5.07;3.30;;;;;;;17.05;100.00;101209.28;5113018;28;20122;-83
2023/09/28 02:22:45;;;;;;;5.80;2.90;;;;;;;17.01;100.00;101203.47;5096391;28;20085;-83
2023/09/28 02:25:18;;;;;;;7.15;3.28;;;;;;;16.96;100.00;101196.03;5096852;28;20023;-82
2023/09/28 02:27:45;;;;;;;6.53;2.92;;;;;;;16.93;100.00;101201.16;5113178;28;20073;-82
2023/09/28 02:30:12;;;;;;;6.72;3.40;;;;;;;16.88;100.00;101201.91;5114663;28;20032;-83
2023/09/28 02:32:42;;;;;;;8.23;3.40;;;;;;;16.81;100.00;101204.75;5114907;28;20047;-83
2023/09/28 02:35:09;;;;;;;5.13;3.25;;;;;;;16.81;100.00;101204.75;5114596;28;20054;-83
2023/09/28 02:37:35;;;;;;;9.45;3.00;;;;;;;16.79;100.00;101212.41;5112935;28;20471;-82
2023/09/28 02:40:04;;;;;;;3.77;3.20;;;;;;;16.76;100.00;101210.16;5096648;28;20115;-83
2023/09/28 02:42:29;;;;;;;5.57;3.50;;;;;;;16.72;100.00;101213.66;5096557;28;20028;-82
2023/09/28 02:44:55;;;;;;;3.80;3.23;;;;;;;16.68;100.00;101210.56;5096457;28;20349;-83
2023/09/28 02:47:20;;;;;;;7.87;3.67;;;;;;;16.65;100.00;101208.31;5112656;28;20054;-83
2023/09/28 02:49:47;;;;;;;6.03;3.30;;;;;;;16.62;100.00;101209.66;5096080;28;20745;-82
2023/09/28 02:52:12;;;;;;;6.65;3.40;;;;;;;16.59;100.00;101220.28;5113190;28;20080;-83
2023/09/28 02:54:38;;;;;;;6.67;3.77;;;;;;;16.58;100.00;101219.44;5112979;28;20032;-82
2023/09/28 02:57:03;;;;;;;7.13;3.70;;;;;;;16.54;100.00;101214.72;5096135;28;20040;-83
2023/09/28 02:59:28;;;;;;;5.70;3.70;;;;;;;16.50;100.00;101219.84;5079009;28;20027;-83
2023/09/28 03:01:54;;;;;;;5.70;3.35;;;;;;;16.48;100.00;101222.81;5096133;28;20484;-83
2023/09/28 03:04:19;;;;;;;6.53;3.73;;;;;;;16.44;100.00;101220.81;5116810;28;20464;-82
2023/09/28 03:06:46;;;;;;;7.57;4.00;;;;;;;16.39;100.00;101226.22;5100563;28;20035;-83
2023/09/28 03:09:12;;;;;;;6.15;3.78;;;;;;;16.35;100.00;101233.25;5118249;28;20114;-82
2023/09/28 03:11:41;;;;;;;7.03;3.97;;;;;;;16.33;100.00;101233.50;5117175;28;20114;-82
2023/09/28 03:14:06;;;;;;;7.60;3.50;;;;;;;16.31;100.00;101235.63;5116675;28;20080;-83
2023/09/28 03:16:32;;;;;;;5.82;3.70;;;;;;;16.28;100.00;101234.25;5099733;28;20031;-83
2023/09/28 03:18:59;;;;;;;6.70;3.78;;;;;;;16.24;100.00;101238.53;5099802;28;20555;-83
2023/09/28 03:21:24;;;;;;;8.25;3.90;;;;;;;16.23;100.00;101238.78;5117615;28;20076;-82
2023/09/28 03:23:50;;;;;;;9.87;4.63;;;;;;;16.19;100.00;101243.91;5100277;28;20027;-82
2023/09/28 03:26:16;;;;;;;6.80;3.70;;;;;;;16.16;100.00;101249.03;5116473;28;20467;-82
2023/09/28 03:28:41;;;;;;;6.60;4.25;;;;;;;16.12;100.00;101251.41;5116796;28;20032;-83
2023/09/28 03:31:06;;;;;;;10.63;4.57;;;;;;;16.08;100.00;101250.25;5082752;28;20032;-83
2023/09/28 03:33:32;;;;;;;9.20;4.03;;;;;;;16.04;100.00;101251.81;5082690;28;20528;-82
2023/09/28 03:35:57;;;;;;;7.93;4.30;;;;;;;16.01;100.00;101255.84;5099464;28;20039;-82
2023/09/28 03:38:23;;;;;;;6.80;4.53;;;;;;;15.98;100.00;101264.56;5100290;28;20081;-82
2023/09/28 03:40:49;;;;;;;7.18;3.97;;;;;;;15.95;100.00;101259.56;5117748;28;20035;-82
2023/09/28 03:43:14;;;;;;;9.13;4.57;;;;;;;15.93;100.00;101267.19;5098909;28;20066;-82
2023/09/28 03:45:39;;;;;;;7.25;4.20;;;;;;;15.92;100.00;101271.81;5099502;28;20043;-83
2023/09/28 03:48:05;;;;;;;7.10;4.30;;;;;;;15.91;100.00;101278.34;5116105;28;20059;-82
2023/09/28 03:50:30;;;;;;;5.60;4.30;;;;;;;15.90;100.00;101284.06;5099799;28;20367;-83
2023/09/28 03:52:56;;;;;;;7.88;4.35;;;;;;;15.86;100.00;101286.47;5116228;28;20042;-82
2023/09/28 03:55:22;;;;;;;8.97;4.43;;;;;;;15.88;100.00;101284.31;5099158;28;20380;-82
2023/09/28 03:57:48;;;;;;;5.23;4.03;;;;;;;15.86;100.00;101272.78;5098689;28;20024;-83
2023/09/28 04:00:18;;;;;;;8.52;4.30;;;;;;;15.85;100.00;101273.84;5116106;28;20092;-83
2023/09/28 04:02:46;;;;;;;6.68;4.30;;;;;;;15.85;100.00;101282.06;5116690;28;20031;-82
2023/09/28 04:05:11;;;;;;;6.78;4.40;;;;;;;15.81;100.00;101283.63;5115879;28;20084;-83
2023/09/28 04:07:38;;;;;;;6.90;4.63;;;;;;;15.81;100.00;101285.53;5098567;28;20027;-82
2023/09/28 04:10:04;;;;;;;5.55;4.50;;;;;;;15.76;100.00;101291.69;5115795;28;20049;-82
2023/09/28 04:12:30;;;;;;;8.10;4.82;;;;;;;15.71;100.00;101294.31;5115676;28;20028;-82
2023/09/28 04:14:55;;;;;;;8.83;4.53;;;;;;;15.68;100.00;101297.50;5115736;28;20032;-82
2023/09/28 04:17:21;;;;;;;7.63;4.55;;;;;;;15.64;100.00;101301.81;5099474;28;20039;-82
2023/09/28 04:19:46;;;;;;;7.93;4.87;;;;;;;15.59;100.00;101291.59;5099047;28;20040;-82
2023/09/28 04:22:12;;;;;;;8.37;4.50;;;;;;;15.57;100.00;101290.97;5115527;28;20039;-82
2023/09/28 04:24:37;;;;;;;9.00;4.68;;;;;;;15.52;100.00;101288.97;5116065;28;20038;-82
2023/09/28 04:27:03;;;;;;;8.30;4.87;;;;;;;15.48;100.00;101287.75;5098428;28;20036;-82
2023/09/28 04:29:28;;;;;;;7.33;4.83;;;;;;;15.43;100.00;101284.91;5115547;28;20023;-83
2023/09/28 04:31:54;;;;;;;8.70;4.93;;;;;;;15.39;100.00;101286.47;5098950;28;20032;-82
2023/09/28 04:34:20;;;;;;;8.85;5.05;;;;;;;15.35;100.00;101294.28;5115753;28;20042;-82
2023/09/28 04:36:46;;;;;;;8.10;4.80;;;;;;;15.30;100.00;101296.91;5115098;28;20476;-82
2023/09/28 04:39:12;;;;;;;6.88;4.88;;;;;;;15.28;100.00;101301.78;5098293;28;20074;-82
2023/09/28 04:41:38;;;;;;;9.38;4.70;;;;;;;15.23;100.00;101313.41;5098230;28;20550;-82
2023/09/28 04:44:05;;;;;;;9.97;4.93;;;;;;;15.19;100.00;101309.50;5115298;28;20118;-82
2023/09/28 04:46:31;;;;;;;7.00;5.23;;;;;;;15.14;100.00;101314.00;5115165;28;20278;-82
2023/09/28 04:48:57;;;;;;;10.02;5.13;;;;;;;15.13;100.00;101320.53;5097839;28;20547;-83
2023/09/28 04:51:22;;;;;;;7.60;5.35;;;;;;;15.11;100.00;101322.66;5115241;28;20119;-82
2023/09/28 04:53:48;;;;;;;7.50;5.07;;;;;;;15.09;100.00;101325.63;5098034;28;20092;-82
2023/09/28 04:56:15;;;;;;;10.52;5.15;;;;;;;15.09;100.00;101320.16;5115336;28;20410;-82
2023/09/28 04:58:41;;;;;;;9.80;5.20;;;;;;;15.08;100.00;101311.13;5114801;28;20042;-82
2023/09/28 05:01:07;;;;;;;7.03;5.10;;;;;;;15.12;100.00;101333.38;5097834;28;20031;-83
2023/09/28 05:03:32;;;;;;;10.80;4.90;;;;;;;15.08;100.00;101341.19;5115684;28;20038;-83
2023/09/28 05:05:58;;;;;;;7.57;4.57;;;;;;;15.09;100.00;101350.22;5080808;28;20035;-82
2023/09/28 05:08:24;;;;;;;10.43;4.75;;;;;;;15.06;100.00;101348.78;5114618;28;20028;-82
2023/09/28 05:10:50;;;;;;;8.77;4.83;;;;;;;15.05;100.00;101358.03;5097730;28;20489;-82
2023/09/28 05:13:16;;;;;;;9.25;4.57;;;;;;;15.01;100.00;101353.28;5097774;28;20391;-82
2023/09/28 05:15:41;;;;;;;8.15;4.32;;;;;;;14.98;100.00;101356.47;5114856;28;20032;-82
2023/09/28 05:18:07;;;;;;;11.10;4.60;;;;;;;14.96;100.00;101361.34;5114312;28;20517;-82
2023/09/28 05:20:32;;;;;;;8.97;4.63;;;;;;;14.93;100.00;101361.81;5115459;28;20042;-91
2023/09/28 05:22:58;;;;;;;12.00;5.20;;;;;;;14.89;100.00;101369.63;5080291;28;20032;-89
2023/09/28 05:25:23;;;;;;;9.57;4.70;;;;;;;14.84;100.00;101372.25;5113313;28;20031;-89
2023/09/28 05:27:52;;;;;;;14.90;4.97;;;;;;;14.79;100.00;101377.56;5080573;28;20024;-88
2023/09/28 05:30:17;;;;;;;8.65;4.82;;;;;;;14.77;100.00;101385.16;5098043;28;20059;-88
2023/09/28 05:32:43;;;;;;;11.97;5.00;;;;;;;14.76;100.00;101386.22;5114027;28;20487;-88
2023/09/28 05:35:09;;;;;;;8.03;4.30;;;;;;;14.76;100.00;101386.22;5113817;28;20030;-87
2023/09/28 05:37:34;;;;;;;8.38;4.68;;;;;;;14.74;100.00;101380.97;5097224;28;20034;-87
2023/09/28 05:40:00;;;;;;;9.30;4.40;;;;;;;14.73;100.00;101385.63;5115193;28;20100;-87
2023/09/28 05:42:26;;;;;;;12.18;4.32;;;;;;;14.72;100.00;101391.31;5115488;28;20518;-88
2023/09/28 05:44:52;;;;;;;10.87;4.60;;;;;;;14.70;100.00;101391.53;5096660;28;20043;-87
2023/09/28 05:47:20;;;;;;;9.05;4.18;;;;;;;14.67;100.00;101400.16;5113681;28;20479;-88
2023/09/28 05:49:47;;;;;;;8.43;4.32;;;;;;;14.68;100.00;101401.03;5113649;28;20048;-88
2023/09/28 05:52:15;;;;;;;10.70;4.10;;;;;;;14.67;100.00;101402.91;5113484;28;20112;-90
2023/09/28 05:54:43;;;;;;;14.00;4.23;;;;;;;14.65;100.00;101404.22;5114237;28;20463;-88
2023/09/28 05:57:09;;;;;;;10.98;4.15;;;;;;;14.67;100.00;101411.09;5113193;28;20028;-89
2023/09/28 05:59:34;;;;;;;12.23;4.57;;;;;;;14.68;100.00;101420.97;5113763;28;20416;-89
2023/09/28 06:02:02;;;;;;;10.30;4.03;;;;;;;14.69;100.00;101421.78;5113629;28;20034;-90
2023/09/28 06:04:30;;;;;;;12.00;3.70;;;;;;;14.68;100.00;101428.34;5113326;28;20034;-89
2023/09/28 06:07:06;;;;;;;8.97;3.77;;;;;;;14.68;100.00;101428.34;5112786;28;20067;-89
2023/09/28 06:12:55;;;;;;;10.10;3.90;;;;;;;14.66;100.00;101419.50;5114856;28;20452;-90
2023/09/28 06:15:26;;;;;;;9.45;3.97;;;;;;;14.64;100.00;101413.47;5096532;28;20034;-89
2023/09/28 06:17:51;;;;;;;11.48;3.80;;;;;;;14.62;100.00;101421.06;5096703;28;20027;-89
2023/09/28 06:20:17;;;;;;;13.57;4.10;;;;;;;14.60;100.00;101421.25;5113157;28;20040;-89
2023/09/28 06:22:53;;;;;;;10.13;3.70;;;;;;;14.62;100.00;101423.78;5079520;28;20035;-89
2023/09/28 06:25:18;;;;;;;13.40;4.10;;;;;;;14.61;100.00;101433.00;5113199;28;20039;-89
2023/09/28 06:27:44;;;;;;;15.27;3.97;;;;;;;14.64;100.00;101436.13;5112484;28;20031;-89
2023/09/28 06:30:10;;;;;;;12.07;3.47;;;;;;;14.67;100.00;101443.88;5113824;28;20031;-89
2023/09/28 06:32:43;;;;;;;13.03;4.33;;;;;;;14.71;100.00;101455.19;5114222;28;20037;-89
2023/09/28 06:35:09;;;;;;;12.77;3.58;;;;;;;14.73;100.00;101458.50;5113294;28;20118;-89
2023/09/28 06:37:37;;;;;;;11.88;3.65;;;;;;;14.75;100.00;101461.88;5096027;28;20046;-89
2023/09/28 06:40:08;;;;;;;14.20;3.13;;;;;;;14.78;100.00;101455.09;5113640;28;20027;-90
2023/09/28 06:42:34;;;;;;;13.68;3.80;;;;;;;14.82;100.00;101459.91;5114410;28;20034;-91
2023/09/28 06:45:07;;;;;;;13.67;3.43;;;;;;;14.85;100.00;101453.13;5113113;28;20031;-91
2023/09/28 06:47:33;;;;;;;16.25;3.63;;;;;;;14.89;100.00;101446.97;5113423;28;20073;-91
2023/09/28 06:50:05;;;;;;;13.73;3.28;;;;;;;14.94;100.00;101459.94;5114510;28;20054;-90
2023/09/28 06:52:32;;;;;;;18.75;4.00;;;;;;;14.99;100.00;101468.28;5095891;28;20070;-89
2023/09/28 06:55:24;;;;;;;15.90;3.40;;;;;;;15.04;100.00;101479.38;5113625;28;20032;-89
2023/09/28 06:57:50;;;;;;;13.80;3.10;;;;;;;15.16;100.00;101482.16;5113529;28;20507;-90
2023/09/28 07:00:17;;;;;;;15.52;3.90;;;;;;;15.29;100.00;101477.56;5112591;28;20020;-90
2023/09/28 07:02:51;;;;;;;16.50;3.40;;;;;;;15.40;100.00;101476.78;5113743;28;20127;-89
2023/09/28 07:05:17;;;;;;;14.93;3.42;;;;;;;15.53;100.00;101492.16;5114414;28;20030;-90
2023/09/28 07:07:46;;;;;;;18.80;4.00;;;;;;;15.70;100.00;101497.81;5112819;28;20015;-88
2023/09/28 07:10:20;;;;;;;17.60;3.38;;;;;;;15.77;100.00;101498.53;5114020;28;20119;-90
2023/09/28 07:12:49;;;;;;;17.77;3.13;;;;;;;15.82;100.00;101482.28;5112563;28;20023;-90
2023/09/28 07:15:14;;;;;;;14.20;3.58;;;;;;;15.83;100.00;101483.13;5113584;28;20451;-90
2023/09/28 07:17:42;;;;;;;15.40;3.50;;;;;;;15.83;100.00;101483.94;5113434;28;20027;-89
2023/09/28 07:20:14;;;;;;;17.70;3.35;;;;;;;15.84;100.00;101495.72;5112785;28;20574;-90
2023/09/28 07:22:53;;;;;;;18.23;4.00;;;;;;;15.84;100.00;101495.72;5112724;28;20100;-90
2023/09/28 07:25:22;;;;;;;21.27;4.43;;;;;;;15.84;100.00;101480.16;5112447;28;20104;-87
2023/09/28 07:27:50;;;;;;;17.08;4.20;;;;;;;15.85;100.00;101480.97;5112713;28;20100;-89
2023/09/28 07:30:19;;;;;;;20.42;4.30;;;;;;;15.86;100.00;101483.47;5113370;28;20028;-88
2023/09/28 07:32:45;;;;;;;24.77;4.20;;;;;;;15.90;100.00;101497.50;5113601;28;20022;-89
2023/09/28 07:35:11;;;;;;;16.85;4.03;;;;;;;15.93;100.00;101514.31;5112366;28;20031;-89
2023/09/28 07:37:38;;;;;;;16.07;3.43;;;;;;;15.99;100.00;101515.28;5113145;28;20097;-91
2023/09/28 07:40:24;;;;;;;19.90;3.83;;;;;;;16.05;100.00;101508.03;5113837;28;20028;-89
2023/09/28 07:42:50;;;;;;;22.17;3.45;;;;;;;16.12;100.00;101515.06;5112698;28;20467;-89
2023/09/28 07:45:18;;;;;;;13.18;3.45;;;;;;;16.21;100.00;101511.94;5112357;28;20035;-89
2023/09/28 07:47:44;;;;;;;18.08;3.55;;;;;;;16.29;100.00;101528.84;5112746;28;20028;-89
2023/09/28 07:50:17;;;;;;;21.67;3.67;;;;;;;16.36;100.00;101516.94;5114818;28;20088;-89
2023/09/28 07:52:43;;;;;;;13.82;3.22;;;;;;;16.45;100.00;101507.31;5116387;28;20054;-89
2023/09/28 07:55:29;;;;;;;19.20;3.50;;;;;;;16.55;100.00;101523.16;5115985;28;20440;-93
2023/09/28 07:57:55;;;;;;;17.03;3.50;;;;;;;16.67;100.00;101519.31;5117582;28;20106;-90
2023/09/28 08:00:21;;;;;;;21.92;4.20;;;;;;;16.77;100.00;101528.84;5116117;28;20514;-90
2023/09/28 08:02:47;;;;;;;21.95;3.72;;;;;;;16.81;100.00;101527.28;5116888;28;20024;-89
2023/09/28 08:05:12;;;;;;;23.10;3.70;;;;;;;16.81;100.00;101532.78;5117330;28;20023;-91
2023/09/28 08:07:42;;;;;;;26.90;3.57;;;;;;;16.83;100.00;101538.88;5098519;28;20070;-89
2023/09/28 08:10:09;;;;;;;20.15;4.07;;;;;;;16.86;100.00;101532.91;5116210;28;20042;-82
2023/09/28 08:12:36;;;;;;;22.52;3.45;;;;;;;16.90;100.00;101542.31;5116587;28;20028;-82
2023/09/28 08:15:03;;;;;;;19.48;3.42;;;;;;;16.93;100.00;101533.63;5116554;28;20110;-82
2023/09/28 08:17:29;;;;;;;21.90;4.10;;;;;;;17.00;100.00;101545.28;5115242;28;20031;-82
2023/09/28 08:19:56;;;;;;;19.05;3.65;;;;;;;17.12;100.00;101549.91;5081897;28;20110;-82
2023/09/28 08:22:22;;;;;;;17.65;3.40;;;;;;;17.21;100.00;101545.69;5098692;28;20031;-82
2023/09/28 08:24:49;;;;;;;12.75;3.00;;;;;;;17.30;100.00;101547.00;5117358;28;20024;-82
2023/09/28 08:27:18;;;;;;;25.25;4.20;;;;;;;17.43;100.00;101543.13;5098609;28;20038;-82
2023/09/28 08:29:44;;;;;;;24.77;3.33;;;;;;;17.60;100.00;101547.81;5081460;28;20035;-83
2023/09/28 08:32:09;;;;;;;30.50;4.55;;;;;;;17.71;100.00;101553.25;5115198;28;20031;-82
2023/09/28 08:34:35;;;;;;;15.73;3.63;;;;;;;17.85;100.00;101556.53;5098245;28;20027;-83
2023/09/28 08:37:03;;;;;;;26.40;4.45;;;;;;;17.99;98.34;101553.50;5098437;28;20027;-82
2023/09/28 08:39:31;;;;;;;21.47;3.80;;;;;;;18.04;95.65;101553.59;5115080;28;20054;-83
2023/09/28 08:42:01;;;;;;;18.85;3.55;;;;;;;18.03;95.98;101557.44;5115078;28;20092;-83
2023/09/28 08:44:29;;;;;;;17.40;3.67;;;;;;;18.02;95.38;101578.53;5114956;28;20076;-83
2023/09/28 08:46:58;;;;;;;24.25;4.32;;;;;;;18.10;93.86;101574.59;5115700;28;20470;-83
2023/09/28 08:49:25;;;;;;;22.30;4.38;;;;;;;18.14;95.10;101570.22;5114542;28;20056;-83
2023/09/28 08:51:54;;;;;;;19.43;4.20;;;;;;;18.32;94.66;101585.66;5114743;28;20059;-83
2023/09/28 08:54:21;;;;;;;23.15;5.00;;;;;;;18.52;92.40;101581.56;5116139;28;20038;-82
2023/09/28 08:56:48;;;;;;;17.00;3.92;;;;;;;18.63;90.86;101588.06;5114660;28;20407;-83
2023/09/28 08:59:16;;;;;;;20.13;4.30;;;;;;;18.52;92.14;101582.41;5098225;28;20027;-82
2023/09/28 09:01:42;;;;;;;22.88;4.35;;;;;;;18.44;93.70;101587.47;5114757;28;20432;-83
2023/09/28 09:04:09;;;;;;;18.13;4.17;;;;;;;18.37;93.17;101591.22;5116174;28;20055;-83
2023/09/28 09:06:34;;;;;;;22.35;4.80;;;;;;;18.40;92.51;101587.16;5114590;28;20084;-85
2023/09/28 09:09:03;;;;;;;25.13;5.13;;;;;;;18.46;91.93;101586.16;5098452;28;20059;-84
2023/09/28 09:11:33;;;;;;;22.50;4.22;;;;;;;18.54;92.42;101587.63;5114547;28;20039;-86
2023/09/28 09:14:00;;;;;;;18.87;5.07;;;;;;;18.74;92.14;101578.88;5115411;28;20023;-85
2023/09/28 09:16:32;;;;;;;17.60;4.97;;;;;;;19.04;90.53;101586.75;5114531;28;20055;-83
2023/09/28 09:18:58;;;;;;;19.13;4.20;;;;;;;19.28;87.31;101584.59;5114559;28;20031;-82
2023/09/28 09:21:24;;;;;;;22.52;4.53;;;;;;;19.33;86.06;101580.25;5114389;28;20088;-83
2023/09/28 09:24:03;;;;;;;18.13;4.60;;;;;;;19.61;86.20;101585.53;5114382;28;20043;-83
2023/09/28 09:26:39;;;;;;;17.23;4.28;;;;;;;19.92;84.15;101588.63;5115468;28;20031;-83
2023/09/28 09:29:05;;;;;;;19.65;4.38;;;;;;;20.04;80.09;101584.88;5115110;28;20164;-83
2023/09/28 09:31:30;;;;;;;17.67;3.90;;;;;;;20.11;81.21;101588.25;5114155;28;20027;-83
2023/09/28 09:34:01;;;;;;;20.92;3.67;;;;;;;20.11;79.50;101599.28;5115350;28;20019;-83
2023/09/28 09:36:26;;;;;;;23.23;4.22;;;;;;;20.01;79.69;101589.00;5114207;28;20036;-83
2023/09/28 09:38:56;;;;;;;20.03;4.17;;;;;;;19.89;80.65;101589.16;5114014;28;20063;-83
2023/09/28 09:41:22;;;;;;;20.00;3.90;;;;;;;19.69;81.98;101584.22;5099204;28;20155;-83
2023/09/28 09:43:51;;;;;;;19.23;3.87;;;;;;;19.64;82.04;101593.25;5096862;28;20028;-83
2023/09/28 09:46:17;;;;;;;24.52;3.92;;;;;;;19.61;81.03;101587.44;5113594;28;20371;-83
2023/09/28 09:48:44;;;;;;;19.30;3.75;;;;;;;19.73;81.10;101595.56;5113460;28;20058;-83
2023/09/28 09:51:12;;;;;;;19.40;4.03;;;;;;;19.91;80.85;101600.72;5113813;28;20043;-83
2023/09/28 09:53:45;;;;;;;23.00;3.80;;;;;;;20.14;79.74;101593.25;5113524;28;20032;-83
2023/09/28 09:56:12;;;;;;;16.45;3.65;;;;;;;20.38;78.81;101606.66;5096404;28;20535;-83
2023/09/28 09:58:49;;;;;;;21.65;4.00;;;;;;;20.41;78.75;101601.44;5113259;28;20028;-83
2023/09/28 10:01:16;;;;;;;22.48;3.97;;;;;;;20.24;78.41;101598.00;5113475;28;20116;-83
2023/09/28 10:03:52;;;;;;;22.00;3.78;;;;;;;20.26;78.96;101598.59;5114794;28;20028;-83
2023/09/28 10:06:19;;;;;;;26.70;4.27;;;;;;;20.13;79.01;101597.91;5114345;28;20032;-83
2023/09/28 10:08:49;;;;;;;26.38;4.53;;;;;;;20.07;78.91;101587.94;5113676;28;20027;-83
2023/09/28 10:11:17;;;;;;;22.73;4.43;;;;;;;20.12;77.63;101581.63;5115133;28;20028;-83
2023/09/28 10:13:43;;;;;;;18.67;3.55;;;;;;;20.12;77.29;101579.75;5113997;28;20062;-83
2023/09/28 10:16:15;;;;;;;19.80;3.72;;;;;;;20.21;77.54;101577.34;5112933;28;20039;-83
2023/09/28 10:18:43;;;;;;;18.63;4.07;;;;;;;20.35;76.12;101566.69;5114923;28;20111;-83
2023/09/28 10:21:11;;;;;;;20.25;4.18;;;;;;;20.46;75.93;101557.41;5113230;28;20043;-83
2023/09/28 10:23:36;;;;;;;16.52;3.92;;;;;;;20.50;75.44;101566.78;5113378;28;20456;-83
2023/09/28 10:26:18;;;;;;;17.80;3.77;;;;;;;20.58;75.39;101565.47;5096058;28;20038;-83
2023/09/28 10:29:06;;;;;;;16.58;3.72;;;;;;;20.64;75.48;101558.09;5112788;28;20468;-83
2023/09/28 10:31:41;;;;;;;14.68;3.33;;;;;;;20.66;73.14;101567.75;5113538;28;20035;-83
2023/09/28 10:34:19;;;;;;;12.43;3.20;;;;;;;20.87;73.40;101565.13;5097739;28;20034;-83
2023/09/28 10:37:05;;;;;;;11.13;2.97;;;;;;;21.16;71.52;101573.00;5113768;28;20337;-83
2023/09/28 10:39:31;;;;;;;17.77;3.63;;;;;;;21.55;70.04;101567.09;5112539;28;20023;-83
2023/09/28 10:42:04;;;;;;;16.35;3.08;;;;;;;21.65;69.88;101569.88;5095870;28;20036;-83
2023/09/28 10:44:31;;;;;;;22.80;3.75;;;;;;;21.68;70.41;101572.09;5114108;28;20028;-83
2023/09/28 10:46:57;;;;;;;12.15;3.00;;;;;;;21.92;69.88;101567.97;5112729;28;20027;-83
2023/09/28 10:49:27;;;;;;;16.23;3.70;;;;;;;21.99;69.02;101588.72;5112508;28;20055;-83
2023/09/28 10:51:55;;;;;;;12.38;2.80;;;;;;;21.88;69.41;101579.59;5112786;28;20027;-83
2023/09/28 10:54:27;;;;;;;13.95;3.30;;;;;;;21.88;67.85;101585.13;5095649;28;20031;-83
2023/09/28 10:56:53;;;;;;;14.23;3.33;;;;;;;21.72;67.59;101572.38;5112686;28;20028;-83
2023/09/28 10:59:19;;;;;;;15.03;3.03;;;;;;;21.92;68.29;101581.78;5095845;28;20046;-83
2023/09/28 11:01:46;;;;;;;15.27;3.60;;;;;;;22.14;67.91;101576.84;5095695;28;20038;-83
2023/09/28 11:04:16;;;;;;;18.52;3.60;;;;;;;22.41;66.58;101595.09;5112381;28;20111;-83
2023/09/28 11:06:44;;;;;;;19.55;3.47;;;;;;;22.63;65.71;101585.69;5096672;28;20371;-83
2023/09/28 11:09:11;;;;;;;19.07;3.07;;;;;;;22.86;65.07;101598.09;5095348;28;20144;-83
2023/09/28 11:11:39;;;;;;;15.85;3.63;;;;;;;23.19;62.97;101595.81;5095718;28;20032;-83
2023/09/28 11:14:05;;;;;;;12.57;3.00;;;;;;;23.45;62.58;101597.34;5096720;28;20039;-83
2023/09/28 11:16:38;;;;;;;19.90;3.20;;;;;;;24.07;61.46;101597.00;5113303;28;20023;-83
2023/09/28 11:19:08;;;;;;;14.98;3.40;;;;;;;25.30;58.44;101583.88;5112660;28;20046;-83
2023/09/28 11:21:36;;;;;;;15.25;3.45;;;;;;;25.79;54.89;101592.09;5112878;28;20523;-83